Terminal Aerodrome Forecast
Issued by NWS

Home | Current Version | Previous Version | Text Only | Print | Product List | Glossary On
Versions: 1 2 3 4 5 6 7 8 9 10 11 12 13 14
000
FTAK31 PAJN 291700
TAFAKT
TAF
PAKT 291735Z 2918/3018 14007KT P6SM -RA SCT009 BKN015 OVC040
      TEMPO 2918/2922 4SM +RA BR BKN009 OVC015
     FM292200 12005KT P6SM VCSH OVC015
     FM300300 28002KT P6SM SCT050 BKN100
     FM301200 31006KT 1SM BR SCT120
      AMD LTD TO CLD VIS AND WIND 3006/3015=

USA.gov is the U.S. government's official web portal to all federal, state and local government web resources and services.